sensor_id;sensor_type;location;lat;lon;timestamp;P1;durP1;ratioP1;P2;durP2;ratioP2
9174;SDS011;54374;50.196;8.050;2022-07-24T00:01:28;7.00;;;5.37;;
9174;SDS011;54374;50.196;8.050;2022-07-24T00:03:56;11.73;;;5.50;;
9174;SDS011;54374;50.196;8.050;2022-07-24T00:06:23;10.40;;;6.33;;
9174;SDS011;54374;50.196;8.050;2022-07-24T00:08:51;8.93;;;6.03;;
9174;SDS011;54374;50.196;8.050;2022-07-24T00:11:18;8.43;;;6.10;;
9174;SDS011;54374;50.196;8.050;2022-07-24T00:13:45;8.73;;;5.30;;
9174;SDS011;54374;50.196;8.050;2022-07-24T00:16:14;8.70;;;5.80;;
9174;SDS011;54374;50.196;8.050;2022-07-24T00:18:41;9.80;;;5.65;;
9174;SDS011;54374;50.196;8.050;2022-07-24T00:21:09;8.60;;;6.17;;
9174;SDS011;54374;50.196;8.050;2022-07-24T00:23:36;13.05;;;6.30;;
9174;SDS011;54374;50.196;8.050;2022-07-24T00:26:03;7.97;;;5.60;;
9174;SDS011;54374;50.196;8.050;2022-07-24T00:28:30;8.80;;;5.60;;
9174;SDS011;54374;50.196;8.050;2022-07-24T00:30:58;8.67;;;5.47;;
9174;SDS011;54374;50.196;8.050;2022-07-24T00:33:25;7.03;;;5.60;;
9174;SDS011;54374;50.196;8.050;2022-07-24T00:35:52;8.20;;;5.50;;
9174;SDS011;54374;50.196;8.050;2022-07-24T00:38:20;8.20;;;5.90;;
9174;SDS011;54374;50.196;8.050;2022-07-24T00:40:47;9.47;;;6.47;;
9174;SDS011;54374;50.196;8.050;2022-07-24T00:43:15;6.88;;;4.88;;
9174;SDS011;54374;50.196;8.050;2022-07-24T00:45:42;9.05;;;5.85;;
9174;SDS011;54374;50.196;8.050;2022-07-24T00:48:10;7.85;;;5.90;;
9174;SDS011;54374;50.196;8.050;2022-07-24T00:50:37;7.95;;;5.95;;
9174;SDS011;54374;50.196;8.050;2022-07-24T00:53:04;10.20;;;5.90;;
9174;SDS011;54374;50.196;8.050;2022-07-24T00:55:33;6.35;;;5.32;;
9174;SDS011;54374;50.196;8.050;2022-07-24T00:58:01;10.63;;;6.32;;
9174;SDS011;54374;50.196;8.050;2022-07-24T01:00:28;8.75;;;5.75;;
9174;SDS011;54374;50.196;8.050;2022-07-24T01:02:55;11.38;;;6.00;;
9174;SDS011;54374;50.196;8.050;2022-07-24T01:05:23;7.80;;;5.43;;
9174;SDS011;54374;50.196;8.050;2022-07-24T01:07:50;7.47;;;5.38;;
9174;SDS011;54374;50.196;8.050;2022-07-24T01:10:17;8.55;;;5.65;;
9174;SDS011;54374;50.196;8.050;2022-07-24T01:12:46;8.00;;;5.72;;
9174;SDS011;54374;50.196;8.050;2022-07-24T01:15:16;10.85;;;6.10;;
9174;SDS011;54374;50.196;8.050;2022-07-24T01:17:43;6.97;;;5.28;;
9174;SDS011;54374;50.196;8.050;2022-07-24T01:20:11;8.13;;;5.50;;
9174;SDS011;54374;50.196;8.050;2022-07-24T01:22:39;10.35;;;6.50;;
9174;SDS011;54374;50.196;8.050;2022-07-24T01:25:07;9.27;;;6.55;;
9174;SDS011;54374;50.196;8.050;2022-07-24T01:27:36;9.77;;;6.28;;
9174;SDS011;54374;50.196;8.050;2022-07-24T01:30:03;8.05;;;5.53;;
9174;SDS011;54374;50.196;8.050;2022-07-24T01:32:31;9.43;;;5.57;;
9174;SDS011;54374;50.196;8.050;2022-07-24T01:34:58;9.02;;;6.70;;
9174;SDS011;54374;50.196;8.050;2022-07-24T01:37:26;9.93;;;6.05;;
9174;SDS011;54374;50.196;8.050;2022-07-24T01:39:54;8.35;;;5.95;;
9174;SDS011;54374;50.196;8.050;2022-07-24T01:42:21;8.25;;;5.63;;
9174;SDS011;54374;50.196;8.050;2022-07-24T01:44:50;8.25;;;5.93;;
9174;SDS011;54374;50.196;8.050;2022-07-24T01:47:17;8.55;;;5.80;;
9174;SDS011;54374;50.196;8.050;2022-07-24T01:49:45;9.45;;;6.70;;
9174;SDS011;54374;50.196;8.050;2022-07-24T01:52:12;9.25;;;5.68;;
9174;SDS011;54374;50.196;8.050;2022-07-24T01:54:39;9.95;;;6.53;;
9174;SDS011;54374;50.196;8.050;2022-07-24T01:57:07;8.40;;;6.13;;
9174;SDS011;54374;50.196;8.050;2022-07-24T01:59:34;10.43;;;6.90;;
9174;SDS011;54374;50.196;8.050;2022-07-24T02:02:03;7.45;;;5.80;;
9174;SDS011;54374;50.196;8.050;2022-07-24T02:04:30;8.77;;;5.88;;
9174;SDS011;54374;50.196;8.050;2022-07-24T02:06:57;8.40;;;6.10;;
9174;SDS011;54374;50.196;8.050;2022-07-24T02:09:24;8.20;;;6.32;;
9174;SDS011;54374;50.196;8.050;2022-07-24T02:11:52;8.82;;;6.15;;
9174;SDS011;54374;50.196;8.050;2022-07-24T02:14:21;11.10;;;6.60;;
9174;SDS011;54374;50.196;8.050;2022-07-24T02:16:48;9.05;;;6.13;;
9174;SDS011;54374;50.196;8.050;2022-07-24T02:19:15;9.75;;;6.70;;
9174;SDS011;54374;50.196;8.050;2022-07-24T02:21:42;11.45;;;5.95;;
9174;SDS011;54374;50.196;8.050;2022-07-24T02:24:09;11.98;;;6.95;;
9174;SDS011;54374;50.196;8.050;2022-07-24T02:26:36;11.68;;;6.88;;
9174;SDS011;54374;50.196;8.050;2022-07-24T02:29:03;8.98;;;6.40;;
9174;SDS011;54374;50.196;8.050;2022-07-24T02:31:31;12.07;;;6.40;;
9174;SDS011;54374;50.196;8.050;2022-07-24T02:33:58;11.02;;;6.55;;
9174;SDS011;54374;50.196;8.050;2022-07-24T02:36:25;11.25;;;6.47;;
9174;SDS011;54374;50.196;8.050;2022-07-24T02:38:53;9.18;;;7.57;;
9174;SDS011;54374;50.196;8.050;2022-07-24T02:41:20;12.68;;;7.43;;
9174;SDS011;54374;50.196;8.050;2022-07-24T02:43:47;8.70;;;5.90;;
9174;SDS011;54374;50.196;8.050;2022-07-24T02:46:14;9.35;;;6.47;;
9174;SDS011;54374;50.196;8.050;2022-07-24T02:48:43;8.45;;;6.28;;
9174;SDS011;54374;50.196;8.050;2022-07-24T02:51:10;10.73;;;6.90;;
9174;SDS011;54374;50.196;8.050;2022-07-24T02:53:37;13.30;;;7.90;;
9174;SDS011;54374;50.196;8.050;2022-07-24T02:56:09;11.13;;;6.97;;
9174;SDS011;54374;50.196;8.050;2022-07-24T02:58:36;10.40;;;6.35;;
9174;SDS011;54374;50.196;8.050;2022-07-24T03:01:03;13.15;;;6.93;;
9174;SDS011;54374;50.196;8.050;2022-07-24T03:03:31;12.13;;;7.13;;
9174;SDS011;54374;50.196;8.050;2022-07-24T03:05:59;15.43;;;7.20;;
9174;SDS011;54374;50.196;8.050;2022-07-24T03:08:27;10.90;;;7.07;;
9174;SDS011;54374;50.196;8.050;2022-07-24T03:10:54;10.85;;;6.80;;
9174;SDS011;54374;50.196;8.050;2022-07-24T03:13:21;11.38;;;6.88;;
9174;SDS011;54374;50.196;8.050;2022-07-24T03:15:48;11.30;;;6.78;;
9174;SDS011;54374;50.196;8.050;2022-07-24T03:18:15;9.32;;;5.90;;
9174;SDS011;54374;50.196;8.050;2022-07-24T03:20:42;12.30;;;6.45;;
9174;SDS011;54374;50.196;8.050;2022-07-24T03:23:11;11.40;;;5.65;;
9174;SDS011;54374;50.196;8.050;2022-07-24T03:25:38;10.32;;;6.70;;
9174;SDS011;54374;50.196;8.050;2022-07-24T03:28:05;15.40;;;6.95;;
9174;SDS011;54374;50.196;8.050;2022-07-24T03:30:32;9.85;;;6.28;;
9174;SDS011;54374;50.196;8.050;2022-07-24T03:32:59;10.73;;;6.35;;
9174;SDS011;54374;50.196;8.050;2022-07-24T03:35:26;10.48;;;6.63;;
9174;SDS011;54374;50.196;8.050;2022-07-24T03:37:53;8.45;;;6.28;;
9174;SDS011;54374;50.196;8.050;2022-07-24T03:40:22;7.53;;;5.50;;
9174;SDS011;54374;50.196;8.050;2022-07-24T03:42:49;8.50;;;6.15;;
9174;SDS011;54374;50.196;8.050;2022-07-24T03:45:16;12.43;;;6.15;;
9174;SDS011;54374;50.196;8.050;2022-07-24T03:47:43;10.40;;;6.35;;
9174;SDS011;54374;50.196;8.050;2022-07-24T03:50:10;11.48;;;6.40;;
9174;SDS011;54374;50.196;8.050;2022-07-24T03:52:37;10.02;;;6.22;;
9174;SDS011;54374;50.196;8.050;2022-07-24T03:55:04;9.32;;;6.00;;
9174;SDS011;54374;50.196;8.050;2022-07-24T03:57:34;10.70;;;6.55;;
9174;SDS011;54374;50.196;8.050;2022-07-24T04:00:01;9.18;;;6.32;;
9174;SDS011;54374;50.196;8.050;2022-07-24T04:02:38;8.80;;;6.10;;
9174;SDS011;54374;50.196;8.050;2022-07-24T04:05:05;8.93;;;6.43;;
9174;SDS011;54374;50.196;8.050;2022-07-24T04:07:34;10.05;;;6.65;;
9174;SDS011;54374;50.196;8.050;2022-07-24T04:10:03;11.07;;;6.70;;
9174;SDS011;54374;50.196;8.050;2022-07-24T04:12:33;9.38;;;6.40;;
9174;SDS011;54374;50.196;8.050;2022-07-24T04:15:01;12.00;;;6.30;;
9174;SDS011;54374;50.196;8.050;2022-07-24T04:17:28;9.43;;;6.05;;
9174;SDS011;54374;50.196;8.050;2022-07-24T04:19:55;8.52;;;5.90;;
9174;SDS011;54374;50.196;8.050;2022-07-24T04:22:22;8.68;;;5.45;;
9174;SDS011;54374;50.196;8.050;2022-07-24T04:24:49;9.82;;;6.32;;
9174;SDS011;54374;50.196;8.050;2022-07-24T04:27:17;12.25;;;6.30;;
9174;SDS011;54374;50.196;8.050;2022-07-24T04:29:45;8.93;;;6.47;;
9174;SDS011;54374;50.196;8.050;2022-07-24T04:32:12;9.60;;;6.00;;
9174;SDS011;54374;50.196;8.050;2022-07-24T04:34:39;10.70;;;6.65;;
9174;SDS011;54374;50.196;8.050;2022-07-24T04:37:06;8.40;;;5.75;;
9174;SDS011;54374;50.196;8.050;2022-07-24T04:39:33;10.45;;;6.70;;
9174;SDS011;54374;50.196;8.050;2022-07-24T04:42:00;9.25;;;6.53;;
9174;SDS011;54374;50.196;8.050;2022-07-24T04:44:27;9.63;;;6.07;;
9174;SDS011;54374;50.196;8.050;2022-07-24T04:46:56;8.98;;;5.90;;
9174;SDS011;54374;50.196;8.050;2022-07-24T04:49:23;11.20;;;6.30;;
9174;SDS011;54374;50.196;8.050;2022-07-24T04:51:50;8.63;;;6.22;;
9174;SDS011;54374;50.196;8.050;2022-07-24T04:54:17;8.00;;;5.70;;
9174;SDS011;54374;50.196;8.050;2022-07-24T04:56:44;9.10;;;6.15;;
9174;SDS011;54374;50.196;8.050;2022-07-24T04:59:11;9.80;;;6.57;;
9174;SDS011;54374;50.196;8.050;2022-07-24T05:01:38;7.43;;;6.00;;
9174;SDS011;54374;50.196;8.050;2022-07-24T05:04:07;9.18;;;5.65;;
9174;SDS011;54374;50.196;8.050;2022-07-24T05:06:34;8.43;;;5.60;;
9174;SDS011;54374;50.196;8.050;2022-07-24T05:09:01;8.00;;;5.75;;
9174;SDS011;54374;50.196;8.050;2022-07-24T05:11:29;8.65;;;6.25;;
9174;SDS011;54374;50.196;8.050;2022-07-24T05:13:56;8.38;;;6.15;;
9174;SDS011;54374;50.196;8.050;2022-07-24T05:16:23;7.25;;;5.40;;
9174;SDS011;54374;50.196;8.050;2022-07-24T05:18:50;7.80;;;6.18;;
9174;SDS011;54374;50.196;8.050;2022-07-24T05:21:18;9.05;;;5.88;;
9174;SDS011;54374;50.196;8.050;2022-07-24T05:23:45;8.50;;;6.15;;
9174;SDS011;54374;50.196;8.050;2022-07-24T05:26:12;8.07;;;5.90;;
9174;SDS011;54374;50.196;8.050;2022-07-24T05:28:40;8.20;;;6.07;;
9174;SDS011;54374;50.196;8.050;2022-07-24T05:31:07;10.00;;;6.57;;
9174;SDS011;54374;50.196;8.050;2022-07-24T05:33:34;8.50;;;5.78;;
9174;SDS011;54374;50.196;8.050;2022-07-24T05:36:02;8.38;;;6.35;;
9174;SDS011;54374;50.196;8.050;2022-07-24T05:38:30;9.63;;;6.03;;
9174;SDS011;54374;50.196;8.050;2022-07-24T05:40:57;9.07;;;5.03;;
9174;SDS011;54374;50.196;8.050;2022-07-24T05:43:24;7.80;;;5.60;;
9174;SDS011;54374;50.196;8.050;2022-07-24T05:45:52;7.20;;;5.93;;
9174;SDS011;54374;50.196;8.050;2022-07-24T05:48:19;7.87;;;5.27;;
9174;SDS011;54374;50.196;8.050;2022-07-24T05:50:46;7.90;;;6.00;;
9174;SDS011;54374;50.196;8.050;2022-07-24T05:53:13;5.83;;;4.60;;
9174;SDS011;54374;50.196;8.050;2022-07-24T05:55:41;6.50;;;5.47;;
9174;SDS011;54374;50.196;8.050;2022-07-24T05:58:08;10.07;;;6.00;;
9174;SDS011;54374;50.196;8.050;2022-07-24T06:00:35;8.90;;;6.13;;
9174;SDS011;54374;50.196;8.050;2022-07-24T06:03:02;6.60;;;5.90;;
9174;SDS011;54374;50.196;8.050;2022-07-24T06:05:30;7.43;;;5.87;;
9174;SDS011;54374;50.196;8.050;2022-07-24T06:07:57;9.27;;;6.20;;
9174;SDS011;54374;50.196;8.050;2022-07-24T06:10:24;8.80;;;5.80;;
9174;SDS011;54374;50.196;8.050;2022-07-24T06:12:52;6.93;;;5.23;;
9174;SDS011;54374;50.196;8.050;2022-07-24T06:15:19;6.43;;;5.30;;
9174;SDS011;54374;50.196;8.050;2022-07-24T06:17:47;7.37;;;5.70;;
9174;SDS011;54374;50.196;8.050;2022-07-24T06:20:14;7.30;;;5.70;;
9174;SDS011;54374;50.196;8.050;2022-07-24T06:22:42;6.87;;;5.10;;
9174;SDS011;54374;50.196;8.050;2022-07-24T06:25:10;8.40;;;5.87;;
9174;SDS011;54374;50.196;8.050;2022-07-24T06:27:39;8.87;;;5.57;;
9174;SDS011;54374;50.196;8.050;2022-07-24T06:30:12;8.40;;;5.67;;
9174;SDS011;54374;50.196;8.050;2022-07-24T06:32:40;6.50;;;5.33;;
9174;SDS011;54374;50.196;8.050;2022-07-24T06:35:07;7.67;;;5.47;;
9174;SDS011;54374;50.196;8.050;2022-07-24T06:37:34;7.43;;;5.80;;
9174;SDS011;54374;50.196;8.050;2022-07-24T06:40:02;6.57;;;5.63;;
9174;SDS011;54374;50.196;8.050;2022-07-24T06:42:30;8.17;;;5.40;;
9174;SDS011;54374;50.196;8.050;2022-07-24T06:44:57;6.90;;;5.23;;
9174;SDS011;54374;50.196;8.050;2022-07-24T06:47:25;8.60;;;5.77;;
9174;SDS011;54374;50.196;8.050;2022-07-24T06:49:52;6.30;;;4.87;;
9174;SDS011;54374;50.196;8.050;2022-07-24T06:52:20;7.57;;;5.57;;
9174;SDS011;54374;50.196;8.050;2022-07-24T06:54:47;7.43;;;5.40;;
9174;SDS011;54374;50.196;8.050;2022-07-24T06:57:15;9.00;;;6.70;;
9174;SDS011;54374;50.196;8.050;2022-07-24T06:59:43;9.20;;;5.60;;
9174;SDS011;54374;50.196;8.050;2022-07-24T07:02:10;8.17;;;5.27;;
9174;SDS011;54374;50.196;8.050;2022-07-24T07:04:39;6.93;;;4.50;;
9174;SDS011;54374;50.196;8.050;2022-07-24T07:07:07;6.33;;;4.83;;
9174;SDS011;54374;50.196;8.050;2022-07-24T07:09:34;5.60;;;5.07;;
9174;SDS011;54374;50.196;8.050;2022-07-24T07:12:02;6.50;;;4.77;;
9174;SDS011;54374;50.196;8.050;2022-07-24T07:14:29;7.43;;;4.90;;
9174;SDS011;54374;50.196;8.050;2022-07-24T07:16:56;8.40;;;5.10;;
9174;SDS011;54374;50.196;8.050;2022-07-24T07:19:26;6.20;;;4.73;;
9174;SDS011;54374;50.196;8.050;2022-07-24T07:21:54;6.23;;;5.20;;
9174;SDS011;54374;50.196;8.050;2022-07-24T07:24:23;6.10;;;4.97;;
9174;SDS011;54374;50.196;8.050;2022-07-24T07:26:50;5.57;;;5.00;;
9174;SDS011;54374;50.196;8.050;2022-07-24T07:29:17;6.50;;;4.93;;
9174;SDS011;54374;50.196;8.050;2022-07-24T07:31:44;5.97;;;5.10;;
9174;SDS011;54374;50.196;8.050;2022-07-24T07:34:11;5.57;;;4.23;;
9174;SDS011;54374;50.196;8.050;2022-07-24T07:36:38;5.13;;;4.43;;
9174;SDS011;54374;50.196;8.050;2022-07-24T07:39:06;6.37;;;5.07;;
9174;SDS011;54374;50.196;8.050;2022-07-24T07:41:34;5.17;;;4.23;;
9174;SDS011;54374;50.196;8.050;2022-07-24T07:44:01;4.57;;;4.17;;
9174;SDS011;54374;50.196;8.050;2022-07-24T07:46:28;6.97;;;4.83;;
9174;SDS011;54374;50.196;8.050;2022-07-24T07:48:59;5.67;;;4.60;;
9174;SDS011;54374;50.196;8.050;2022-07-24T07:51:26;9.30;;;4.40;;
9174;SDS011;54374;50.196;8.050;2022-07-24T07:53:53;4.80;;;4.20;;
9174;SDS011;54374;50.196;8.050;2022-07-24T07:56:21;5.27;;;4.23;;
9174;SDS011;54374;50.196;8.050;2022-07-24T07:58:49;5.00;;;3.90;;
9174;SDS011;54374;50.196;8.050;2022-07-24T08:01:16;4.77;;;4.30;;
9174;SDS011;54374;50.196;8.050;2022-07-24T08:03:43;5.50;;;4.23;;
9174;SDS011;54374;50.196;8.050;2022-07-24T08:06:10;5.60;;;3.80;;
9174;SDS011;54374;50.196;8.050;2022-07-24T08:08:37;4.43;;;4.03;;
9174;SDS011;54374;50.196;8.050;2022-07-24T08:11:04;5.57;;;4.53;;
9174;SDS011;54374;50.196;8.050;2022-07-24T08:13:33;5.20;;;4.40;;
9174;SDS011;54374;50.196;8.050;2022-07-24T08:16:00;5.70;;;4.13;;
9174;SDS011;54374;50.196;8.050;2022-07-24T08:18:30;5.97;;;4.03;;
9174;SDS011;54374;50.196;8.050;2022-07-24T08:20:57;4.90;;;3.70;;
9174;SDS011;54374;50.196;8.050;2022-07-24T08:23:24;4.80;;;4.13;;
9174;SDS011;54374;50.196;8.050;2022-07-24T08:25:51;5.77;;;4.57;;
9174;SDS011;54374;50.196;8.050;2022-07-24T08:28:19;4.87;;;4.10;;
9174;SDS011;54374;50.196;8.050;2022-07-24T08:30:49;6.33;;;4.23;;
9174;SDS011;54374;50.196;8.050;2022-07-24T08:33:16;5.57;;;4.30;;
9174;SDS011;54374;50.196;8.050;2022-07-24T08:35:44;4.60;;;3.93;;
9174;SDS011;54374;50.196;8.050;2022-07-24T08:38:11;6.13;;;4.13;;
9174;SDS011;54374;50.196;8.050;2022-07-24T08:40:38;7.00;;;4.50;;
9174;SDS011;54374;50.196;8.050;2022-07-24T08:43:06;4.90;;;4.10;;
9174;SDS011;54374;50.196;8.050;2022-07-24T08:45:35;5.00;;;4.43;;
9174;SDS011;54374;50.196;8.050;2022-07-24T08:48:06;7.17;;;4.50;;
9174;SDS011;54374;50.196;8.050;2022-07-24T08:50:35;5.80;;;4.70;;
9174;SDS011;54374;50.196;8.050;2022-07-24T08:53:04;8.33;;;3.80;;
9174;SDS011;54374;50.196;8.050;2022-07-24T08:55:32;6.13;;;4.30;;
9174;SDS011;54374;50.196;8.050;2022-07-24T08:57:59;4.90;;;4.40;;
9174;SDS011;54374;50.196;8.050;2022-07-24T09:00:28;4.63;;;4.20;;
9174;SDS011;54374;50.196;8.050;2022-07-24T09:02:56;5.20;;;4.30;;
9174;SDS011;54374;50.196;8.050;2022-07-24T09:05:25;6.63;;;4.90;;
9174;SDS011;54374;50.196;8.050;2022-07-24T09:08:05;7.83;;;4.63;;
9174;SDS011;54374;50.196;8.050;2022-07-24T09:10:33;5.77;;;4.13;;
9174;SDS011;54374;50.196;8.050;2022-07-24T09:13:11;4.43;;;4.00;;
9174;SDS011;54374;50.196;8.050;2022-07-24T09:15:44;4.57;;;3.90;;
9174;SDS011;54374;50.196;8.050;2022-07-24T09:18:26;4.27;;;3.87;;
9174;SDS011;54374;50.196;8.050;2022-07-24T09:20:56;5.47;;;4.50;;
9174;SDS011;54374;50.196;8.050;2022-07-24T09:23:24;9.63;;;4.80;;
9174;SDS011;54374;50.196;8.050;2022-07-24T09:25:53;6.50;;;4.20;;
9174;SDS011;54374;50.196;8.050;2022-07-24T09:28:20;5.53;;;4.57;;
9174;SDS011;54374;50.196;8.050;2022-07-24T09:30:48;5.50;;;4.20;;
9174;SDS011;54374;50.196;8.050;2022-07-24T09:33:15;5.90;;;4.90;;
9174;SDS011;54374;50.196;8.050;2022-07-24T09:35:45;6.53;;;4.50;;
9174;SDS011;54374;50.196;8.050;2022-07-24T09:38:15;6.30;;;4.43;;
9174;SDS011;54374;50.196;8.050;2022-07-24T09:40:44;7.60;;;4.80;;
9174;SDS011;54374;50.196;8.050;2022-07-24T09:43:13;5.83;;;4.13;;
9174;SDS011;54374;50.196;8.050;2022-07-24T09:45:51;5.20;;;4.23;;
9174;SDS011;54374;50.196;8.050;2022-07-24T09:48:21;5.97;;;4.57;;
9174;SDS011;54374;50.196;8.050;2022-07-24T09:50:49;6.23;;;4.30;;
9174;SDS011;54374;50.196;8.050;2022-07-24T09:53:19;5.10;;;4.43;;
9174;SDS011;54374;50.196;8.050;2022-07-24T09:56:02;5.70;;;4.83;;
9174;SDS011;54374;50.196;8.050;2022-07-24T09:58:35;4.10;;;3.70;;
9174;SDS011;54374;50.196;8.050;2022-07-24T10:01:04;7.30;;;4.43;;
9174;SDS011;54374;50.196;8.050;2022-07-24T10:03:33;8.83;;;4.27;;
9174;SDS011;54374;50.196;8.050;2022-07-24T10:06:04;7.60;;;4.27;;
9174;SDS011;54374;50.196;8.050;2022-07-24T10:08:41;6.30;;;4.73;;
9174;SDS011;54374;50.196;8.050;2022-07-24T10:11:09;6.73;;;4.30;;
9174;SDS011;54374;50.196;8.050;2022-07-24T10:13:37;5.03;;;4.50;;
9174;SDS011;54374;50.196;8.050;2022-07-24T10:16:22;5.80;;;4.60;;
9174;SDS011;54374;50.196;8.050;2022-07-24T10:18:58;6.43;;;5.13;;
9174;SDS011;54374;50.196;8.050;2022-07-24T10:21:28;6.00;;;4.80;;
9174;SDS011;54374;50.196;8.050;2022-07-24T10:24:17;8.60;;;5.23;;
9174;SDS011;54374;50.196;8.050;2022-07-24T10:27:05;6.73;;;4.70;;
9174;SDS011;54374;50.196;8.050;2022-07-24T10:29:42;5.57;;;4.60;;
9174;SDS011;54374;50.196;8.050;2022-07-24T10:32:10;5.47;;;4.47;;
9174;SDS011;54374;50.196;8.050;2022-07-24T10:34:38;5.60;;;4.70;;
9174;SDS011;54374;50.196;8.050;2022-07-24T10:37:15;6.13;;;4.40;;
9174;SDS011;54374;50.196;8.050;2022-07-24T10:39:53;6.30;;;4.90;;
9174;SDS011;54374;50.196;8.050;2022-07-24T10:42:28;5.53;;;5.00;;
9174;SDS011;54374;50.196;8.050;2022-07-24T10:45:14;6.20;;;4.30;;
9174;SDS011;54374;50.196;8.050;2022-07-24T10:47:43;6.03;;;4.67;;
9174;SDS011;54374;50.196;8.050;2022-07-24T10:50:10;11.03;;;4.83;;
9174;SDS011;54374;50.196;8.050;2022-07-24T10:52:37;5.40;;;4.90;;
9174;SDS011;54374;50.196;8.050;2022-07-24T10:55:29;5.30;;;4.33;;
9174;SDS011;54374;50.196;8.050;2022-07-24T10:57:58;5.60;;;4.80;;
9174;SDS011;54374;50.196;8.050;2022-07-24T11:00:29;7.87;;;4.93;;
9174;SDS011;54374;50.196;8.050;2022-07-24T11:02:59;5.50;;;4.87;;
9174;SDS011;54374;50.196;8.050;2022-07-24T11:05:31;10.00;;;4.83;;
9174;SDS011;54374;50.196;8.050;2022-07-24T11:11:06;4.77;;;4.30;;
9174;SDS011;54374;50.196;8.050;2022-07-24T11:13:45;5.00;;;4.50;;
9174;SDS011;54374;50.196;8.050;2022-07-24T11:16:29;6.47;;;5.00;;
9174;SDS011;54374;50.196;8.050;2022-07-24T11:22:01;5.20;;;4.50;;
9174;SDS011;54374;50.196;8.050;2022-07-24T11:25:05;5.70;;;4.40;;
9174;SDS011;54374;50.196;8.050;2022-07-24T11:27:45;5.93;;;4.67;;
9174;SDS011;54374;50.196;8.050;2022-07-24T11:30:14;5.80;;;4.80;;
9174;SDS011;54374;50.196;8.050;2022-07-24T11:32:42;9.20;;;4.70;;
9174;SDS011;54374;50.196;8.050;2022-07-24T11:35:10;6.27;;;4.40;;
9174;SDS011;54374;50.196;8.050;2022-07-24T11:37:39;5.73;;;4.47;;
9174;SDS011;54374;50.196;8.050;2022-07-24T11:40:07;6.30;;;4.73;;
9174;SDS011;54374;50.196;8.050;2022-07-24T11:42:35;5.80;;;4.63;;
9174;SDS011;54374;50.196;8.050;2022-07-24T11:45:04;7.93;;;5.67;;
9174;SDS011;54374;50.196;8.050;2022-07-24T11:47:32;6.47;;;5.10;;
9174;SDS011;54374;50.196;8.050;2022-07-24T11:50:00;6.20;;;5.17;;
9174;SDS011;54374;50.196;8.050;2022-07-24T11:52:30;5.13;;;4.50;;
9174;SDS011;54374;50.196;8.050;2022-07-24T11:55:00;5.93;;;4.70;;
9174;SDS011;54374;50.196;8.050;2022-07-24T11:57:29;7.73;;;5.27;;
9174;SDS011;54374;50.196;8.050;2022-07-24T11:59:58;5.20;;;4.20;;
9174;SDS011;54374;50.196;8.050;2022-07-24T12:02:27;6.03;;;5.47;;
9174;SDS011;54374;50.196;8.050;2022-07-24T12:04:54;5.63;;;5.00;;
9174;SDS011;54374;50.196;8.050;2022-07-24T12:07:22;8.10;;;5.43;;
9174;SDS011;54374;50.196;8.050;2022-07-24T12:09:51;7.43;;;5.20;;
9174;SDS011;54374;50.196;8.050;2022-07-24T12:12:20;5.63;;;4.90;;
9174;SDS011;54374;50.196;8.050;2022-07-24T12:14:53;11.03;;;5.30;;
9174;SDS011;54374;50.196;8.050;2022-07-24T12:17:30;9.07;;;4.70;;
9174;SDS011;54374;50.196;8.050;2022-07-24T12:20:00;6.60;;;4.83;;
9174;SDS011;54374;50.196;8.050;2022-07-24T12:22:33;6.87;;;5.20;;
9174;SDS011;54374;50.196;8.050;2022-07-24T12:25:01;5.60;;;5.00;;
9174;SDS011;54374;50.196;8.050;2022-07-24T12:27:36;5.43;;;4.77;;
9174;SDS011;54374;50.196;8.050;2022-07-24T12:30:16;6.47;;;4.80;;
9174;SDS011;54374;50.196;8.050;2022-07-24T12:32:59;10.63;;;5.70;;
9174;SDS011;54374;50.196;8.050;2022-07-24T12:35:29;12.20;;;4.90;;
9174;SDS011;54374;50.196;8.050;2022-07-24T12:37:58;5.60;;;4.53;;
9174;SDS011;54374;50.196;8.050;2022-07-24T12:40:29;8.70;;;5.50;;
9174;SDS011;54374;50.196;8.050;2022-07-24T12:42:58;5.60;;;5.00;;
9174;SDS011;54374;50.196;8.050;2022-07-24T12:45:27;6.57;;;4.93;;
9174;SDS011;54374;50.196;8.050;2022-07-24T12:48:10;6.53;;;5.03;;
9174;SDS011;54374;50.196;8.050;2022-07-24T12:50:57;5.87;;;5.20;;
9174;SDS011;54374;50.196;8.050;2022-07-24T12:53:26;6.93;;;5.30;;
9174;SDS011;54374;50.196;8.050;2022-07-24T12:56:00;6.77;;;5.37;;
9174;SDS011;54374;50.196;8.050;2022-07-24T13:01:42;6.87;;;5.07;;
9174;SDS011;54374;50.196;8.050;2022-07-24T13:04:12;6.37;;;5.30;;
9174;SDS011;54374;50.196;8.050;2022-07-24T13:06:42;6.13;;;5.53;;
9174;SDS011;54374;50.196;8.050;2022-07-24T13:09:12;8.60;;;5.77;;
9174;SDS011;54374;50.196;8.050;2022-07-24T13:11:41;6.57;;;4.83;;
9174;SDS011;54374;50.196;8.050;2022-07-24T13:14:10;8.53;;;5.37;;
9174;SDS011;54374;50.196;8.050;2022-07-24T13:16:39;5.83;;;5.03;;
9174;SDS011;54374;50.196;8.050;2022-07-24T13:19:07;6.47;;;5.17;;
9174;SDS011;54374;50.196;8.050;2022-07-24T13:21:37;6.10;;;4.90;;
9174;SDS011;54374;50.196;8.050;2022-07-24T13:24:06;6.37;;;5.50;;
9174;SDS011;54374;50.196;8.050;2022-07-24T13:26:35;6.17;;;4.90;;
9174;SDS011;54374;50.196;8.050;2022-07-24T13:29:03;5.97;;;4.57;;
9174;SDS011;54374;50.196;8.050;2022-07-24T13:31:31;6.80;;;5.10;;
9174;SDS011;54374;50.196;8.050;2022-07-24T13:33:59;6.33;;;5.70;;
9174;SDS011;54374;50.196;8.050;2022-07-24T13:36:27;7.30;;;5.13;;
9174;SDS011;54374;50.196;8.050;2022-07-24T13:38:58;7.07;;;5.43;;
9174;SDS011;54374;50.196;8.050;2022-07-24T13:41:25;5.53;;;4.60;;
9174;SDS011;54374;50.196;8.050;2022-07-24T13:43:52;7.73;;;5.30;;
9174;SDS011;54374;50.196;8.050;2022-07-24T13:46:20;6.10;;;5.00;;
9174;SDS011;54374;50.196;8.050;2022-07-24T13:48:47;6.13;;;4.83;;
9174;SDS011;54374;50.196;8.050;2022-07-24T13:51:15;7.10;;;5.07;;
9174;SDS011;54374;50.196;8.050;2022-07-24T13:53:42;5.37;;;4.87;;
9174;SDS011;54374;50.196;8.050;2022-07-24T13:56:11;5.83;;;4.77;;
9174;SDS011;54374;50.196;8.050;2022-07-24T13:58:38;7.20;;;4.63;;
9174;SDS011;54374;50.196;8.050;2022-07-24T14:01:07;6.77;;;5.33;;
9174;SDS011;54374;50.196;8.050;2022-07-24T14:03:35;6.13;;;5.53;;
9174;SDS011;54374;50.196;8.050;2022-07-24T14:06:04;5.87;;;4.47;;
9174;SDS011;54374;50.196;8.050;2022-07-24T14:08:32;6.77;;;5.70;;
9174;SDS011;54374;50.196;8.050;2022-07-24T14:10:59;5.27;;;4.70;;
9174;SDS011;54374;50.196;8.050;2022-07-24T14:13:30;5.93;;;4.47;;
9174;SDS011;54374;50.196;8.050;2022-07-24T14:15:57;5.27;;;4.50;;
9174;SDS011;54374;50.196;8.050;2022-07-24T14:18:24;5.73;;;4.67;;
9174;SDS011;54374;50.196;8.050;2022-07-24T14:20:52;6.90;;;5.07;;
9174;SDS011;54374;50.196;8.050;2022-07-24T14:23:19;6.70;;;4.97;;
9174;SDS011;54374;50.196;8.050;2022-07-24T14:25:46;5.67;;;4.53;;
9174;SDS011;54374;50.196;8.050;2022-07-24T14:28:14;8.73;;;5.10;;
9174;SDS011;54374;50.196;8.050;2022-07-24T14:30:42;5.20;;;4.40;;
9174;SDS011;54374;50.196;8.050;2022-07-24T14:33:10;8.13;;;4.67;;
9174;SDS011;54374;50.196;8.050;2022-07-24T14:35:37;7.73;;;5.33;;
9174;SDS011;54374;50.196;8.050;2022-07-24T14:38:04;7.27;;;4.97;;
9174;SDS011;54374;50.196;8.050;2022-07-24T14:40:31;6.80;;;5.43;;
9174;SDS011;54374;50.196;8.050;2022-07-24T14:42:58;6.43;;;5.00;;
9174;SDS011;54374;50.196;8.050;2022-07-24T14:45:26;6.90;;;4.70;;
9174;SDS011;54374;50.196;8.050;2022-07-24T14:47:55;4.90;;;4.20;;
9174;SDS011;54374;50.196;8.050;2022-07-24T14:50:22;5.50;;;4.77;;
9174;SDS011;54374;50.196;8.050;2022-07-24T14:52:49;15.37;;;5.63;;
9174;SDS011;54374;50.196;8.050;2022-07-24T14:55:16;6.17;;;5.40;;
9174;SDS011;54374;50.196;8.050;2022-07-24T14:57:43;5.90;;;5.03;;
9174;SDS011;54374;50.196;8.050;2022-07-24T15:00:11;6.00;;;5.10;;
9174;SDS011;54374;50.196;8.050;2022-07-24T15:02:39;6.40;;;5.13;;
9174;SDS011;54374;50.196;8.050;2022-07-24T15:05:08;6.87;;;4.97;;
9174;SDS011;54374;50.196;8.050;2022-07-24T15:07:35;6.13;;;4.73;;
9174;SDS011;54374;50.196;8.050;2022-07-24T15:10:03;6.20;;;5.00;;
9174;SDS011;54374;50.196;8.050;2022-07-24T15:12:30;5.83;;;4.47;;
9174;SDS011;54374;50.196;8.050;2022-07-24T15:14:59;6.43;;;4.90;;
9174;SDS011;54374;50.196;8.050;2022-07-24T15:17:26;8.07;;;5.00;;
9174;SDS011;54374;50.196;8.050;2022-07-24T15:19:53;7.53;;;5.30;;